createdAt,value
2023-02-19T00:02:14.901Z,9.7
2023-02-19T00:07:20.982Z,9.6
2023-02-19T00:12:27.057Z,9.7
2023-02-19T00:17:33.156Z,9.7
2023-02-19T00:22:39.253Z,9.6
2023-02-19T00:27:45.409Z,9.5
2023-02-19T00:32:51.501Z,9.4
2023-02-19T00:37:57.545Z,9.3
2023-02-19T00:43:03.635Z,9.2
2023-02-19T00:48:09.748Z,9.2
2023-02-19T00:53:14.856Z,9.1
2023-02-19T00:58:20.934Z,9.1
2023-02-19T01:03:27.050Z,9.1
2023-02-19T01:08:33.153Z,9
2023-02-19T01:13:39.243Z,9
2023-02-19T01:18:45.333Z,9
2023-02-19T01:23:51.445Z,9
2023-02-19T01:28:57.540Z,8.9
2023-02-19T01:34:03.598Z,8.9
2023-02-19T01:39:09.749Z,8.9
2023-02-19T01:44:15.817Z,8.9
2023-02-19T01:54:28.003Z,8.9
2023-02-19T01:59:33.092Z,8.9
2023-02-19T02:04:39.209Z,8.9
2023-02-19T02:09:45.312Z,8.9
2023-02-19T02:14:51.423Z,8.9
2023-02-19T02:19:57.490Z,8.9
2023-02-19T02:25:03.610Z,8.9
2023-02-19T02:30:09.677Z,8.9
2023-02-19T02:35:15.784Z,8.9
2023-02-19T02:40:21.887Z,8.9
2023-02-19T02:45:27.975Z,8.9
2023-02-19T02:50:34.070Z,8.9
2023-02-19T02:55:40.162Z,8.9
2023-02-19T03:00:46.270Z,8.9
2023-02-19T03:05:51.367Z,8.8
2023-02-19T03:10:57.458Z,8.8
2023-02-19T03:16:03.629Z,8.8
2023-02-19T03:21:09.666Z,8.9
2023-02-19T03:26:15.894Z,8.9
2023-02-19T03:31:21.853Z,8.8
2023-02-19T03:36:27.966Z,8.8
2023-02-19T03:41:34.024Z,8.8
2023-02-19T03:46:40.131Z,8.9
2023-02-19T03:51:46.256Z,8.9
2023-02-19T03:56:52.318Z,8.9
2023-02-19T04:01:58.422Z,8.9
2023-02-19T04:07:04.521Z,8.9
2023-02-19T04:12:09.670Z,8.9
2023-02-19T04:17:15.765Z,8.9
2023-02-19T04:22:21.827Z,8.9
2023-02-19T04:27:27.938Z,8.9
2023-02-19T04:32:34.009Z,8.9
2023-02-19T04:37:40.093Z,8.9
2023-02-19T04:42:46.193Z,8.8
2023-02-19T04:47:52.289Z,8.8
2023-02-19T04:52:58.387Z,8.8
2023-02-19T04:58:04.521Z,8.8
2023-02-19T05:03:10.583Z,8.8
2023-02-19T05:08:16.724Z,8.7
2023-02-19T05:13:22.856Z,8.7
2023-02-19T05:18:27.885Z,8.7
2023-02-19T05:23:33.967Z,8.7
2023-02-19T05:28:40.101Z,8.7
2023-02-19T05:33:46.173Z,8.6
2023-02-19T05:38:52.278Z,8.5
2023-02-19T05:43:58.371Z,8.4
2023-02-19T05:49:04.515Z,8.4
2023-02-19T05:54:10.548Z,8.5
2023-02-19T05:59:16.651Z,8.6
2023-02-19T06:04:22.737Z,8.6
2023-02-19T06:09:28.831Z,8.7
2023-02-19T06:14:34.956Z,8.7
2023-02-19T06:19:41.092Z,8.8
2023-02-19T06:24:46.165Z,8.3
2023-02-19T06:29:52.245Z,7.7
2023-02-19T06:34:58.339Z,7.3
2023-02-19T06:40:04.428Z,7.1
2023-02-19T06:45:10.538Z,6.9
2023-02-19T06:50:16.627Z,6.6
2023-02-19T06:55:22.743Z,6.3
2023-02-19T07:00:28.840Z,6
2023-02-19T07:05:34.903Z,5.8
2023-02-19T07:10:41.018Z,5.8
2023-02-19T07:15:47.116Z,5.8
2023-02-19T07:20:53.207Z,5.9
2023-02-19T07:25:59.312Z,5.8
2023-02-19T07:31:04.446Z,5.7
2023-02-19T07:36:10.572Z,5.7
2023-02-19T07:41:16.645Z,5.7
2023-02-19T07:46:22.763Z,5.7
2023-02-19T07:51:28.917Z,5.8
2023-02-19T07:56:34.920Z,5.8
2023-02-19T08:01:41.038Z,5.7
2023-02-19T08:06:47.127Z,5.7
2023-02-19T08:11:53.294Z,5.5
2023-02-19T08:16:59.320Z,5.2
2023-02-19T08:22:05.395Z,5
2023-02-19T08:27:11.584Z,5
2023-02-19T08:32:17.596Z,5
2023-02-19T08:37:22.799Z,5.1
2023-02-19T08:42:28.791Z,4.9
2023-02-19T08:47:34.902Z,4.9
2023-02-19T08:52:40.985Z,5
2023-02-19T08:57:47.077Z,5.1
2023-02-19T09:02:53.179Z,5.1
2023-02-19T09:07:59.297Z,5.3
2023-02-19T09:13:05.364Z,5.3
2023-02-19T09:18:11.476Z,5.5
2023-02-19T09:23:17.558Z,5.6
2023-02-19T09:28:23.678Z,5.9
2023-02-19T09:33:29.762Z,6.1
2023-02-19T09:38:35.927Z,6.2
2023-02-19T09:43:40.965Z,6.6
2023-02-19T09:48:47.090Z,6.6
2023-02-19T09:53:53.173Z,7.1
2023-02-19T09:58:59.251Z,7.1
2023-02-19T10:04:05.411Z,7.6
2023-02-19T10:09:11.468Z,7.5
2023-02-19T10:14:17.544Z,7.3
2023-02-19T10:19:23.647Z,7.5
2023-02-19T10:24:29.725Z,7.3
2023-02-19T10:29:35.828Z,7
2023-02-19T10:34:41.963Z,6.7
2023-02-19T10:39:48.047Z,6.8
2023-02-19T10:44:54.156Z,6.9
2023-02-19T10:49:59.253Z,7
2023-02-19T10:55:05.317Z,6.9
2023-02-19T11:00:11.421Z,7
2023-02-19T11:05:17.517Z,7.2
2023-02-19T11:10:23.686Z,7.4
2023-02-19T11:15:29.775Z,7.7
2023-02-19T11:20:35.885Z,7.3
2023-02-19T11:25:41.907Z,7.2
2023-02-19T11:30:48.033Z,7.3
2023-02-19T11:35:54.089Z,7.6
2023-02-19T11:41:00.181Z,7.8
2023-02-19T11:46:06.403Z,7.7
2023-02-19T11:51:12.374Z,7.9
2023-02-19T11:56:17.493Z,7.7
2023-02-19T12:01:23.594Z,7.8
2023-02-19T12:06:29.717Z,7.8
2023-02-19T12:11:35.784Z,8.1
2023-02-19T12:16:41.880Z,8.2
2023-02-19T12:21:47.981Z,7.9
2023-02-19T12:26:54.089Z,7.8
2023-02-19T12:32:00.187Z,8
2023-02-19T12:37:06.268Z,8.2
2023-02-19T12:42:12.379Z,8
2023-02-19T12:47:18.444Z,8.2
2023-02-19T12:52:24.560Z,8.2
2023-02-19T12:57:30.650Z,8.1
2023-02-19T13:02:35.766Z,7.8
2023-02-19T13:07:41.843Z,7.7
2023-02-19T13:12:47.956Z,8.8
2023-02-19T13:17:54.054Z,10.4
2023-02-19T13:23:00.144Z,10.8
2023-02-19T13:28:06.251Z,11.4
2023-02-19T13:33:11.361Z,12.2
2023-02-19T13:38:17.454Z,10.4
2023-02-19T13:43:23.550Z,10.6
2023-02-19T13:48:29.631Z,9.8
2023-02-19T13:53:35.735Z,9.7
2023-02-19T13:58:41.833Z,11
2023-02-19T14:03:47.958Z,10
2023-02-19T14:08:54.040Z,13.5
2023-02-19T14:14:00.181Z,12.9
2023-02-19T14:19:06.205Z,11.8
2023-02-19T14:24:12.319Z,9.8
2023-02-19T14:29:18.402Z,8.6
2023-02-19T14:34:24.503Z,8.1
2023-02-19T14:39:29.617Z,9.8
2023-02-19T14:44:35.720Z,11.7
2023-02-19T14:49:41.802Z,10.9
2023-02-19T14:54:47.897Z,11.2
2023-02-19T14:59:53.996Z,12.2
2023-02-19T15:05:00.113Z,12.3
2023-02-19T15:10:06.190Z,10.7
2023-02-19T15:15:12.285Z,9.6
2023-02-19T15:20:18.371Z,8.3
2023-02-19T15:25:24.463Z,7.6
2023-02-19T15:30:30.586Z,7.3
2023-02-19T15:35:36.676Z,7.1
2023-02-19T15:40:42.812Z,7
2023-02-19T15:45:47.895Z,7.2
2023-02-19T15:50:53.971Z,7.7
2023-02-19T15:56:00.070Z,7.4
2023-02-19T16:01:06.157Z,7.2
2023-02-19T16:06:12.261Z,6.8
2023-02-19T16:11:18.344Z,6.7
2023-02-19T16:16:24.486Z,6.7
2023-02-19T16:21:30.549Z,6.4
2023-02-19T16:26:36.648Z,6.1
2023-02-19T16:31:42.783Z,5.9
2023-02-19T16:36:48.845Z,5.8
2023-02-19T16:41:54.955Z,5.6
2023-02-19T16:47:01.033Z,5.4
2023-02-19T16:52:06.145Z,5.2
2023-02-19T16:57:12.242Z,4.9
2023-02-19T17:02:18.332Z,4.7
2023-02-19T17:07:24.475Z,4.4
2023-02-19T17:12:30.529Z,4.3
2023-02-19T17:17:36.622Z,4
2023-02-19T17:22:42.765Z,3.8
2023-02-19T17:27:48.876Z,3.5
2023-02-19T17:32:54.915Z,3.1
2023-02-19T17:38:01.024Z,2.9
2023-02-19T17:43:07.115Z,2.8
2023-02-19T17:48:13.271Z,2.8
2023-02-19T17:53:19.369Z,2.9
2023-02-19T17:58:24.431Z,2.9
2023-02-19T18:03:30.540Z,2.8
2023-02-19T18:08:36.615Z,2.7
2023-02-19T18:13:42.730Z,2.6
2023-02-19T18:18:48.825Z,2.4
2023-02-19T18:23:54.914Z,2.3
2023-02-19T18:29:00.994Z,2.4
2023-02-19T18:34:07.099Z,2.5
2023-02-19T18:39:13.204Z,2.6
2023-02-19T18:44:19.292Z,2.7
2023-02-19T18:49:25.397Z,2.8
2023-02-19T18:54:31.499Z,2.8
2023-02-19T18:59:37.576Z,2.8
2023-02-19T19:04:42.709Z,2.6
2023-02-19T19:09:48.820Z,2.4
2023-02-19T19:14:54.900Z,2.1
2023-02-19T19:20:00.986Z,2
2023-02-19T19:25:07.090Z,1.8
2023-02-19T19:30:13.216Z,1.7
2023-02-19T19:35:19.293Z,1.7
2023-02-19T19:40:25.386Z,1.6
2023-02-19T19:45:31.484Z,1.6
2023-02-19T19:50:37.592Z,1.5
2023-02-19T19:55:43.684Z,1.4
2023-02-19T20:00:49.776Z,1.4
2023-02-19T20:05:55.879Z,1.4
2023-02-19T20:11:00.979Z,1.3
2023-02-19T20:16:07.098Z,1.3
2023-02-19T20:21:13.245Z,1.2
2023-02-19T20:26:19.288Z,1.1
2023-02-19T20:31:25.394Z,1.1
2023-02-19T20:36:31.543Z,1.3
2023-02-19T20:41:37.589Z,1.5
2023-02-19T20:46:43.709Z,1.6
2023-02-19T20:51:49.782Z,1.8
2023-02-19T20:56:55.863Z,2
2023-02-19T21:02:01.973Z,2.2
2023-02-19T21:07:08.100Z,2.3
2023-02-19T21:12:14.208Z,2.4
2023-02-19T21:17:19.299Z,2.5
2023-02-19T21:22:25.504Z,2.6
2023-02-19T21:32:37.582Z,2.8
2023-02-19T21:37:43.678Z,2.9
2023-02-19T21:42:49.762Z,3
2023-02-19T21:47:55.864Z,3
2023-02-19T21:53:01.980Z,3.1
2023-02-19T21:58:08.066Z,3.2
2023-02-19T22:03:14.145Z,3.2
2023-02-19T22:08:20.255Z,3.3
2023-02-19T22:13:26.346Z,3.3
2023-02-19T22:18:32.444Z,3.2
2023-02-19T22:23:37.568Z,3.3
2023-02-19T22:28:43.661Z,3.4
2023-02-19T22:33:49.751Z,3.4
2023-02-19T22:38:55.861Z,3.5
2023-02-19T22:44:01.991Z,3.5
2023-02-19T22:49:08.056Z,3.5
2023-02-19T22:54:14.204Z,3.5
2023-02-19T22:59:20.393Z,3.6
2023-02-19T23:04:26.368Z,3.6
2023-02-19T23:09:32.465Z,3.6
2023-02-19T23:14:38.622Z,3.7
2023-02-19T23:19:44.652Z,3.8
2023-02-19T23:24:50.738Z,3.8
2023-02-19T23:29:55.858Z,3.9
2023-02-19T23:35:02.022Z,3.9
2023-02-19T23:40:08.052Z,3.9
2023-02-19T23:45:14.211Z,3.9
2023-02-19T23:50:20.240Z,3.8
2023-02-19T23:55:26.332Z,3.8
